createdAt,value
2018-11-12T00:24:58.922Z,20.9
2018-11-12T00:25:47.896Z,20.9
2018-11-12T00:26:37.881Z,20.9
2018-11-12T00:27:28.669Z,20.9
2018-11-12T00:28:17.783Z,20.9
2018-11-12T00:29:09.569Z,21
2018-11-12T00:29:59.580Z,21
2018-11-12T00:30:48.804Z,21
2018-11-12T00:31:39.191Z,21.1
2018-11-12T00:32:28.617Z,21.1
2018-11-12T00:33:18.223Z,21.1
2018-11-12T00:34:07.401Z,21.1
2018-11-12T00:34:58.171Z,21.1
2018-11-12T00:39:08.648Z,21.2
2018-11-12T00:40:48.552Z,21.2
2018-11-12T00:41:39.023Z,21.2
2018-11-12T00:42:28.898Z,21.2
2018-11-12T00:43:19.795Z,21.2
2018-11-12T00:44:09.574Z,21.2
2018-11-12T00:44:59.232Z,21.2
2018-11-12T00:45:50.183Z,21.2
2018-11-12T00:46:39.710Z,21.2
2018-11-12T00:47:30.128Z,21.3
2018-11-12T00:48:19.009Z,21.3
2018-11-12T00:49:09.714Z,21.3
2018-11-12T00:49:59.734Z,21.3
2018-11-12T00:50:49.430Z,21.3
2018-11-12T00:51:39.055Z,21.3
2018-11-12T00:52:29.032Z,21.3
2018-11-12T00:53:19.622Z,21.3
2018-11-12T00:54:09.023Z,21.3
2018-11-12T00:55:00.451Z,21.3
2018-11-12T00:55:50.692Z,21.3
2018-11-12T00:56:39.437Z,21.3
2018-11-12T00:57:30.351Z,21.3
2018-11-12T00:58:20.312Z,21.3
2018-11-12T00:59:09.568Z,21.3
2018-11-12T00:59:59.860Z,21.3
2018-11-12T01:00:52.627Z,21.3
2018-11-12T01:01:39.507Z,21.3
2018-11-12T01:02:30.412Z,21.3
2018-11-12T01:03:19.627Z,21.3
2018-11-12T01:04:11.758Z,21.3
2018-11-12T01:05:00.314Z,21.3
2018-11-12T01:05:51.918Z,21.3
2018-11-12T01:06:41.151Z,21.3
2018-11-12T01:07:31.064Z,21.3
2018-11-12T01:08:21.290Z,21.3
2018-11-12T01:09:10.479Z,21.3
2018-11-12T01:10:00.755Z,21.3
2018-11-12T01:10:51.272Z,21.3
2018-11-12T01:11:40.821Z,21.3
2018-11-12T01:12:31.031Z,21.3
2018-11-12T01:13:20.942Z,21.3
2018-11-12T01:14:11.497Z,21.3
2018-11-12T01:15:01.001Z,21.3
2018-11-12T01:15:51.059Z,21.3
2018-11-12T01:16:41.680Z,21.3
2018-11-12T01:17:32.024Z,21.3
2018-11-12T01:18:20.764Z,21.3
2018-11-12T01:19:11.074Z,21.3
2018-11-12T01:20:02.374Z,21.3
2018-11-12T01:20:52.336Z,21.3
2018-11-12T01:21:42.181Z,21.3
2018-11-12T01:22:31.911Z,21.3
2018-11-12T01:23:21.043Z,21.3
2018-11-12T01:24:11.006Z,21.3
2018-11-12T01:25:02.206Z,21.3
2018-11-12T01:25:52.573Z,21.3
2018-11-12T01:26:42.436Z,21.3
2018-11-12T01:27:32.257Z,21.3
2018-11-12T01:28:21.406Z,21.3
2018-11-12T01:29:12.959Z,21.3
2018-11-12T01:30:02.216Z,21.3
2018-11-12T01:30:53.383Z,21.3
2018-11-12T01:31:43.276Z,21.3
2018-11-12T01:32:33.019Z,21.3
2018-11-12T01:33:23.354Z,21.3
2018-11-12T01:34:13.395Z,21.3
2018-11-12T01:35:02.953Z,21.3
2018-11-12T01:35:52.651Z,21.3
2018-11-12T01:36:43.457Z,21.3
2018-11-12T01:37:33.580Z,21.4
2018-11-12T01:38:23.965Z,21.3
2018-11-12T01:39:13.454Z,21.3
2018-11-12T01:40:02.977Z,21.3
2018-11-12T01:40:53.645Z,21.3
2018-11-12T01:41:44.367Z,21.3
2018-11-12T01:42:33.535Z,21.3
2018-11-12T01:43:23.523Z,21.3
2018-11-12T01:44:14.353Z,21.4
2018-11-12T01:45:03.532Z,21.4
2018-11-12T01:45:53.903Z,21.4
2018-11-12T01:46:43.491Z,21.4
2018-11-12T01:47:34.679Z,21.4
2018-11-12T01:48:23.929Z,21.4
2018-11-12T01:49:14.348Z,21.4
2018-11-12T01:50:03.590Z,21.4
2018-11-12T01:50:54.154Z,21.4
2018-11-12T01:51:44.462Z,21.4
2018-11-12T01:52:34.627Z,21.4
2018-11-12T01:53:23.870Z,21.4
2018-11-12T01:54:14.611Z,21.4
2018-11-12T01:55:04.642Z,21.4
2018-11-12T01:55:55.117Z,21.4
2018-11-12T01:56:44.254Z,21.4
2018-11-12T01:57:34.889Z,21.4
2018-11-12T01:58:24.778Z,21.4
2018-11-12T01:59:14.107Z,21.5
2018-11-12T02:00:04.516Z,21.5
2018-11-12T02:00:55.706Z,21.5
2018-11-12T02:01:46.616Z,21.5
2018-11-12T02:02:34.836Z,21.5
2018-11-12T02:03:25.406Z,21.6
2018-11-12T02:04:15.348Z,21.5
2018-11-12T02:05:05.714Z,21.5
2018-11-12T02:05:55.976Z,21.5
2018-11-12T02:06:45.640Z,21.5
2018-11-12T02:07:35.138Z,21.5
2018-11-12T02:08:24.936Z,21.5
2018-11-12T02:09:15.624Z,21.5
2018-11-12T02:10:05.512Z,21.5
2018-11-12T02:10:55.633Z,21.5
2018-11-12T02:11:45.883Z,21.5
2018-11-12T02:12:35.288Z,21.5
2018-11-12T02:13:26.501Z,21.5
2018-11-12T02:14:15.088Z,21.4
2018-11-12T02:15:05.963Z,21.5
2018-11-12T02:15:55.236Z,21.5
2018-11-12T02:16:46.522Z,21.5
2018-11-12T02:17:36.155Z,21.5
2018-11-12T02:18:24.373Z,21.5
2018-11-12T02:19:16.870Z,21.5
2018-11-12T02:20:04.940Z,21.4
2018-11-12T02:20:56.158Z,21.4
2018-11-12T02:21:47.170Z,21.4
2018-11-12T02:22:37.085Z,21.4
2018-11-12T02:23:25.865Z,21.4
2018-11-12T02:24:16.037Z,21.4
2018-11-12T02:25:06.356Z,21.4
2018-11-12T02:25:56.902Z,21.5
2018-11-12T02:26:46.777Z,21.4
2018-11-12T02:27:37.257Z,21.4
2018-11-12T02:28:26.992Z,21.4
2018-11-12T02:29:16.860Z,21.5
2018-11-12T02:30:07.698Z,21.5
2018-11-12T02:30:56.480Z,21.5
2018-11-12T02:31:47.600Z,21.5
2018-11-12T02:32:36.939Z,21.5
2018-11-12T02:33:28.973Z,21.5
2018-11-12T02:34:16.440Z,21.5
2018-11-12T02:35:07.202Z,21.6
2018-11-12T02:35:57.282Z,21.6
2018-11-12T02:36:47.577Z,21.6
2018-11-12T02:37:38.735Z,21.6
2018-11-12T02:38:27.692Z,21.6
2018-11-12T02:39:17.782Z,21.6
2018-11-12T02:40:07.542Z,21.6
2018-11-12T02:40:57.894Z,21.6
2018-11-12T02:41:48.271Z,21.6
2018-11-12T02:42:38.050Z,21.6
2018-11-12T02:43:27.574Z,21.6
2018-11-12T02:44:17.799Z,21.6
2018-11-12T02:45:08.687Z,21.6
2018-11-12T02:45:57.936Z,21.6
2018-11-12T02:46:48.017Z,21.6
2018-11-12T02:47:38.306Z,21.6
2018-11-12T02:48:27.905Z,21.6
2018-11-12T02:49:19.253Z,21.6
2018-11-12T02:50:08.308Z,21.6
2018-11-12T02:50:58.113Z,21.6
2018-11-12T02:51:49.057Z,21.6
2018-11-12T02:52:38.655Z,21.6
2018-11-12T02:53:28.559Z,21.6
2018-11-12T02:54:18.876Z,21.6
2018-11-12T02:55:08.920Z,21.6
2018-11-12T02:55:58.673Z,21.6
2018-11-12T02:56:47.913Z,21.6
2018-11-12T02:57:39.948Z,21.6
2018-11-12T02:58:29.386Z,21.6
2018-11-12T02:59:18.753Z,21.6
2018-11-12T03:00:09.822Z,21.6
2018-11-12T03:00:59.046Z,21.6
2018-11-12T03:01:50.065Z,21.6
2018-11-12T03:02:39.946Z,21.6
2018-11-12T03:03:29.603Z,21.6
2018-11-12T03:04:18.635Z,21.6
2018-11-12T03:05:10.147Z,21.6
2018-11-12T03:05:59.380Z,21.6
2018-11-12T03:06:50.099Z,21.6
2018-11-12T03:07:39.505Z,21.6
2018-11-12T03:08:30.156Z,21.6
2018-11-12T03:09:20.723Z,21.6
2018-11-12T03:10:10.246Z,21.6
2018-11-12T03:10:59.508Z,21.6
2018-11-12T03:11:50.080Z,21.6
2018-11-12T03:12:39.692Z,21.6
2018-11-12T03:13:29.129Z,21.6
2018-11-12T03:14:19.682Z,21.6
2018-11-12T03:15:10.420Z,21.6
2018-11-12T03:16:01.283Z,21.6
2018-11-12T03:16:50.529Z,21.6
2018-11-12T03:17:40.532Z,21.6
2018-11-12T03:18:30.605Z,21.6
2018-11-12T03:19:20.582Z,21.7
2018-11-12T03:20:09.614Z,21.7
2018-11-12T03:21:01.147Z,21.7
2018-11-12T03:21:50.782Z,21.7
2018-11-12T03:22:41.425Z,21.7
2018-11-12T03:23:30.751Z,21.7
2018-11-12T03:24:20.195Z,21.7
2018-11-12T03:25:11.347Z,21.7
2018-11-12T03:26:01.361Z,21.8
2018-11-12T03:26:51.596Z,21.8
2018-11-12T03:27:42.817Z,21.8
2018-11-12T03:28:32.122Z,21.8
2018-11-12T03:29:21.276Z,21.8
2018-11-12T03:30:11.995Z,21.8
2018-11-12T03:31:01.495Z,21.8
2018-11-12T03:31:51.617Z,21.8
2018-11-12T03:32:41.851Z,21.8
2018-11-12T03:33:31.251Z,21.8
2018-11-12T03:34:22.041Z,21.8
2018-11-12T03:35:12.244Z,21.8
2018-11-12T03:36:01.554Z,21.8
2018-11-12T03:36:51.931Z,21.8
2018-11-12T03:37:41.188Z,21.8
2018-11-12T03:38:31.065Z,21.8
2018-11-12T03:39:22.875Z,21.8
2018-11-12T03:40:11.441Z,21.8
2018-11-12T03:41:01.943Z,21.8
2018-11-12T03:41:52.658Z,21.8
2018-11-12T03:42:42.027Z,21.8
2018-11-12T03:43:32.148Z,21.8
2018-11-12T03:44:22.708Z,21.8
2018-11-12T03:45:12.195Z,21.8
2018-11-12T03:46:02.610Z,21.8
2018-11-12T03:46:52.977Z,21.8
2018-11-12T03:47:43.214Z,21.8
2018-11-12T03:48:33.580Z,21.8
2018-11-12T03:49:21.960Z,21.8
2018-11-12T03:50:12.738Z,21.7
2018-11-12T03:51:03.395Z,21.7
2018-11-12T03:51:53.220Z,21.8
2018-11-12T03:52:42.230Z,21.7
2018-11-12T03:53:33.217Z,21.7
2018-11-12T03:54:23.227Z,21.7
2018-11-12T03:55:13.419Z,21.7
2018-11-12T03:56:03.262Z,21.7
2018-11-12T03:56:53.867Z,21.7
2018-11-12T03:57:43.060Z,21.7
2018-11-12T03:58:33.220Z,21.7
2018-11-12T03:59:23.590Z,21.7
2018-11-12T04:00:15.049Z,21.7
2018-11-12T04:01:02.342Z,21.7
2018-11-12T04:01:53.694Z,21.8
2018-11-12T04:02:44.110Z,21.7
2018-11-12T04:03:33.824Z,21.7
2018-11-12T04:04:24.494Z,21.8
2018-11-12T04:05:14.434Z,21.7
2018-11-12T04:06:03.642Z,21.8
2018-11-12T04:06:54.886Z,21.8
2018-11-12T04:07:44.703Z,21.8
2018-11-12T04:08:34.442Z,21.8
2018-11-12T04:09:24.737Z,21.8
2018-11-12T04:10:14.444Z,21.8
2018-11-12T04:11:03.830Z,21.8
2018-11-12T04:11:53.849Z,21.8
2018-11-12T04:12:44.801Z,21.8
2018-11-12T04:13:34.536Z,21.8
2018-11-12T04:14:24.561Z,21.8
2018-11-12T04:15:14.891Z,21.8
2018-11-12T04:16:05.779Z,21.8
2018-11-12T04:16:55.038Z,21.8
2018-11-12T04:17:45.166Z,21.9
2018-11-12T04:18:34.846Z,21.9
2018-11-12T04:19:24.404Z,21.9
2018-11-12T04:20:14.693Z,21.9
2018-11-12T04:21:04.510Z,21.9
2018-11-12T04:21:55.742Z,21.9
2018-11-12T04:22:45.248Z,21.9
2018-11-12T04:23:35.191Z,21.9
2018-11-12T04:24:25.253Z,21.9
2018-11-12T04:25:16.795Z,21.9
2018-11-12T04:26:04.816Z,21.8
2018-11-12T04:26:55.729Z,21.9
2018-11-12T04:27:45.790Z,21.9
2018-11-12T04:28:35.850Z,21.9
2018-11-12T04:29:25.318Z,21.8
2018-11-12T04:30:15.703Z,21.8
2018-11-12T04:31:05.708Z,21.8
2018-11-12T04:31:56.179Z,21.8
2018-11-12T04:32:46.415Z,21.8
2018-11-12T04:33:36.104Z,21.8
2018-11-12T04:34:25.495Z,21.8
2018-11-12T04:35:16.031Z,21.8
2018-11-12T04:36:05.765Z,21.8
2018-11-12T04:36:56.402Z,21.8
2018-11-12T04:54:14.464Z,21.5
2018-11-12T04:55:05.452Z,21.5
2018-11-12T04:55:55.047Z,21.5
2018-11-12T04:56:45.105Z,21.5
2018-11-12T04:57:35.124Z,21.5
2018-11-12T04:58:24.611Z,21.4
2018-11-12T04:59:16.024Z,21.4
2018-11-12T05:00:05.627Z,21.4
2018-11-12T05:00:55.416Z,21.4
2018-11-12T05:01:46.102Z,21.4
2018-11-12T05:02:35.107Z,21.4
2018-11-12T05:03:25.599Z,21.4
2018-11-12T05:04:15.926Z,21.4
2018-11-12T05:05:06.475Z,21.4
2018-11-12T05:05:55.736Z,21.3
2018-11-12T05:06:46.186Z,21.3
2018-11-12T05:07:37.600Z,21.3
2018-11-12T05:08:25.394Z,21.3
2018-11-12T05:09:15.961Z,21.3
2018-11-12T05:10:05.341Z,21.3
2018-11-12T05:10:55.821Z,21.3
2018-11-12T05:11:46.480Z,21.3
2018-11-12T05:12:37.006Z,21.3
2018-11-12T05:13:26.318Z,21.3
2018-11-12T05:14:16.097Z,21.3
2018-11-12T05:15:06.171Z,21.3
2018-11-12T05:15:57.276Z,21.3
2018-11-12T05:16:47.827Z,21.3
2018-11-12T05:17:36.015Z,21.3
2018-11-12T05:18:26.400Z,21.3
2018-11-12T05:19:16.150Z,21.3
2018-11-12T05:20:07.610Z,21.3
2018-11-12T05:20:56.453Z,21.3
2018-11-12T05:21:47.693Z,21.3
2018-11-12T05:22:36.328Z,21.3
2018-11-12T05:23:27.043Z,21.3
2018-11-12T05:24:17.577Z,21.3
2018-11-12T05:25:07.277Z,21.3
2018-11-12T05:25:57.399Z,21.3
2018-11-12T05:26:46.966Z,21.3
2018-11-12T05:27:37.349Z,21.3
2018-11-12T05:28:27.949Z,21.2
2018-11-12T05:29:17.935Z,21.2
2018-11-12T05:30:07.923Z,21.2
2018-11-12T05:30:57.177Z,21.3
2018-11-12T05:31:46.837Z,21.3
2018-11-12T05:32:37.883Z,21.3
2018-11-12T05:33:26.875Z,21.3
2018-11-12T05:34:17.204Z,21.3
2018-11-12T05:35:07.851Z,21.3
2018-11-12T05:35:58.012Z,21.3
2018-11-12T05:36:48.029Z,21.3
2018-11-12T05:37:38.063Z,21.3
2018-11-12T05:38:29.755Z,21.3
2018-11-12T05:39:18.669Z,21.3
2018-11-12T05:40:08.396Z,21.3
2018-11-12T05:40:58.090Z,21.3
2018-11-12T05:41:49.104Z,21.3
2018-11-12T05:42:38.078Z,21.3
2018-11-12T05:43:28.736Z,21.3
2018-11-12T05:44:18.482Z,21.3
2018-11-12T05:45:10.342Z,21.3
2018-11-12T05:45:58.344Z,21.3
2018-11-12T05:46:48.584Z,21.3
2018-11-12T05:47:38.645Z,21.3
2018-11-12T05:48:29.056Z,21.3
2018-11-12T05:49:19.084Z,21.3
2018-11-12T05:50:09.519Z,21.3
2018-11-12T05:50:59.259Z,21.3
2018-11-12T05:51:49.801Z,21.3
2018-11-12T05:52:39.076Z,21.3
2018-11-12T05:53:29.338Z,21.3
2018-11-12T05:54:19.720Z,21.3
2018-11-12T05:55:09.195Z,21.3
2018-11-12T05:56:00.156Z,21.3
2018-11-12T05:56:49.520Z,21.3
2018-11-12T05:57:39.424Z,21.3
2018-11-12T05:58:29.065Z,21.3
2018-11-12T05:59:19.266Z,21.3
2018-11-12T06:00:09.082Z,21.3
2018-11-12T06:00:58.773Z,21.3
2018-11-12T06:01:50.060Z,21.3
2018-11-12T06:02:38.771Z,21.3
2018-11-12T06:03:29.858Z,21.3
2018-11-12T06:04:19.718Z,21.3
2018-11-12T06:05:09.858Z,21.3
2018-11-12T06:06:00.783Z,21.3
2018-11-12T06:06:50.073Z,21.3
2018-11-12T06:07:40.135Z,21.3
2018-11-12T06:08:31.048Z,21.3
2018-11-12T06:09:20.193Z,21.4
2018-11-12T06:10:09.775Z,21.4
2018-11-12T06:11:00.670Z,21.4
2018-11-12T06:11:50.385Z,21.4
2018-11-12T06:12:40.738Z,21.4
2018-11-12T06:13:30.590Z,21.4
2018-11-12T06:14:21.473Z,21.4
2018-11-12T06:15:09.856Z,21.4
2018-11-12T06:16:00.995Z,21.4
2018-11-12T06:16:50.320Z,21.4
2018-11-12T06:17:41.457Z,21.4
2018-11-12T06:18:30.560Z,21.4
2018-11-12T06:19:20.155Z,21.4
2018-11-12T06:20:11.322Z,21.4
2018-11-12T06:21:00.920Z,21.4
2018-11-12T06:21:51.372Z,21.5
2018-11-12T06:22:40.787Z,21.5
2018-11-12T06:23:30.397Z,21.5
2018-11-12T06:24:21.302Z,21.5
2018-11-12T06:25:11.151Z,21.5
2018-11-12T06:26:01.804Z,21.5
2018-11-12T06:26:52.297Z,21.4
2018-11-12T06:27:42.151Z,21.4
2018-11-12T06:28:32.099Z,21.4
2018-11-12T06:29:21.657Z,21.4
2018-11-12T06:30:11.256Z,21.4
2018-11-12T06:31:02.463Z,21.4
2018-11-12T06:31:51.918Z,21.4
2018-11-12T06:32:41.671Z,21.4
2018-11-12T06:33:31.638Z,21.4
2018-11-12T06:34:22.160Z,21.4
2018-11-12T06:35:11.661Z,21.4
2018-11-12T06:36:02.369Z,21.4
2018-11-12T06:36:54.385Z,21.4
2018-11-12T06:37:42.533Z,21.4
2018-11-12T06:38:32.624Z,21.4
2018-11-12T06:39:22.350Z,21.4
2018-11-12T06:40:12.788Z,21.4
2018-11-12T06:41:02.441Z,21.4
2018-11-12T06:41:52.891Z,21.4
2018-11-12T06:42:43.908Z,21.3
2018-11-12T06:43:33.049Z,21.3
2018-11-12T06:44:22.176Z,21.4
2018-11-12T06:45:12.658Z,21.4
2018-11-12T06:46:03.336Z,21.4
2018-11-12T06:46:52.978Z,21.4
2018-11-12T06:47:42.686Z,21.4
2018-11-12T06:48:32.355Z,21.4
2018-11-12T06:49:24.702Z,21.4
2018-11-12T06:50:12.095Z,21.4
2018-11-12T06:51:02.930Z,21.4
2018-11-12T06:51:53.801Z,21.4
2018-11-12T06:52:43.194Z,21.4
2018-11-12T06:53:35.178Z,21.4
2018-11-12T06:54:23.195Z,21.4
2018-11-12T06:55:13.581Z,21.4
2018-11-12T06:56:04.213Z,21.4
2018-11-12T06:56:53.624Z,21.4
2018-11-12T06:57:44.463Z,21.4
2018-11-12T06:58:33.657Z,21.4
2018-11-12T06:59:24.493Z,21.4
2018-11-12T07:00:14.142Z,21.3
2018-11-12T07:01:04.399Z,21.4
2018-11-12T07:01:54.852Z,21.3
2018-11-12T07:02:44.520Z,21.3
2018-11-12T07:03:32.972Z,21.3
2018-11-12T07:04:24.109Z,21.3
2018-11-12T07:05:13.836Z,21.3
2018-11-12T07:06:03.939Z,21.3
2018-11-12T07:06:55.500Z,21.3
2018-11-12T07:07:44.773Z,21.3
2018-11-12T07:08:34.291Z,21.3
2018-11-12T07:09:24.546Z,21.3
2018-11-12T07:10:14.259Z,21.3
2018-11-12T07:11:05.165Z,21.3
2018-11-12T07:11:55.268Z,21.3
2018-11-12T07:12:44.389Z,21.3
2018-11-12T07:13:34.791Z,21.3
2018-11-12T07:14:23.967Z,21.3
2018-11-12T07:15:14.687Z,21.3
2018-11-12T07:16:05.515Z,21.3
2018-11-12T07:16:55.105Z,21.3
2018-11-12T07:17:44.238Z,21.3
2018-11-12T07:18:34.732Z,21.3
2018-11-12T07:19:25.228Z,21.2
2018-11-12T07:20:15.565Z,21.2
2018-11-12T07:21:06.110Z,21.3
2018-11-12T07:21:54.987Z,21.2
2018-11-12T07:22:45.359Z,21.2
2018-11-12T07:23:36.849Z,21.2
2018-11-12T07:24:25.167Z,21.2
2018-11-12T07:25:16.171Z,21.2
2018-11-12T07:26:05.455Z,21.2
2018-11-12T07:26:55.561Z,21.2
2018-11-12T07:27:45.784Z,21.2
2018-11-12T07:28:36.259Z,21.2
2018-11-12T07:29:25.874Z,21.2
2018-11-12T07:34:26.251Z,21.2
2018-11-12T07:41:06.986Z,21.1
2018-11-12T07:46:06.947Z,21.1
2018-11-12T07:47:47.056Z,21.1
2018-11-12T07:48:37.670Z,21.1
2018-11-12T07:49:27.223Z,21.1
2018-11-12T07:50:17.222Z,21.1
2018-11-12T07:51:07.803Z,21.1
2018-11-12T07:51:57.506Z,21.1
2018-11-12T07:52:47.100Z,21.1
2018-11-12T07:53:38.071Z,21.1
2018-11-12T07:54:28.655Z,21.1
2018-11-12T07:55:17.448Z,21.1
2018-11-12T07:56:08.294Z,21.1
2018-11-12T07:56:57.385Z,21.1
2018-11-12T07:57:48.162Z,21.1
2018-11-12T07:58:37.520Z,21.1
2018-11-12T07:59:28.200Z,21.1
2018-11-12T08:00:17.872Z,21
2018-11-12T08:01:09.010Z,21
2018-11-12T08:01:58.630Z,21
2018-11-12T08:02:47.484Z,21
2018-11-12T08:03:55.380Z,21
2018-11-12T08:04:28.959Z,21
2018-11-12T08:05:19.052Z,21.1
2018-11-12T08:06:07.942Z,21
2018-11-12T08:06:59.115Z,21
2018-11-12T08:07:48.954Z,21
2018-11-12T08:08:39.237Z,21
2018-11-12T08:09:29.778Z,21
2018-11-12T08:10:18.854Z,21
2018-11-12T08:11:08.023Z,20.9
2018-11-12T08:12:00.067Z,20.9
2018-11-12T08:12:49.080Z,20.9
2018-11-12T08:13:38.477Z,20.9
2018-11-12T08:14:30.962Z,20.9
2018-11-12T08:15:19.479Z,20.9
2018-11-12T08:16:08.567Z,20.9
2018-11-12T08:16:59.737Z,20.9
2018-11-12T08:17:52.109Z,20.9
2018-11-12T08:18:38.551Z,20.9
2018-11-12T08:19:27.644Z,20.9
2018-11-12T08:20:20.369Z,20.9
2018-11-12T08:21:08.930Z,20.9
2018-11-12T08:21:59.183Z,20.9
2018-11-12T08:22:50.438Z,20.9
2018-11-12T08:23:40.044Z,20.9
2018-11-12T08:24:31.295Z,20.9
2018-11-12T08:25:19.743Z,20.9
2018-11-12T08:26:10.296Z,20.8
2018-11-12T08:26:59.587Z,20.8
2018-11-12T08:27:49.182Z,20.8
2018-11-12T08:28:39.111Z,20.8
2018-11-12T08:29:30.198Z,20.8
2018-11-12T08:30:20.491Z,20.8
2018-11-12T08:31:10.614Z,20.8
2018-11-12T08:32:00.521Z,20.8
2018-11-12T08:32:50.326Z,20.8
2018-11-12T08:33:40.218Z,20.8
2018-11-12T08:34:30.605Z,20.8
2018-11-12T08:35:20.408Z,20.8
2018-11-12T08:36:11.006Z,20.8
2018-11-12T08:37:00.342Z,20.8
2018-11-12T08:37:51.468Z,20.8
2018-11-12T08:38:40.269Z,20.8
2018-11-12T08:39:31.944Z,20.7
2018-11-12T08:40:21.665Z,20.7
2018-11-12T08:41:11.675Z,20.7
2018-11-12T08:42:00.274Z,20.7
2018-11-12T08:42:52.615Z,20.7
2018-11-12T08:43:41.348Z,20.7
2018-11-12T08:44:29.230Z,20.6
2018-11-12T08:45:20.990Z,20.6
2018-11-12T08:46:12.317Z,20.6
2018-11-12T08:47:00.561Z,20.6
2018-11-12T08:47:50.757Z,20.6
2018-11-12T08:48:41.244Z,20.6
2018-11-12T08:49:34.882Z,20.6
2018-11-12T08:50:21.035Z,20.6
2018-11-12T08:51:12.172Z,20.6
2018-11-12T08:52:01.519Z,20.6
2018-11-12T09:08:44.751Z,20.4
2018-11-12T09:09:35.001Z,20.4
2018-11-12T09:10:25.813Z,20.4
2018-11-12T09:11:15.144Z,20.4
2018-11-12T09:12:06.051Z,20.4
2018-11-12T09:12:55.576Z,20.4
2018-11-12T09:13:48.863Z,20.4
2018-11-12T09:14:35.871Z,20.3
2018-11-12T09:15:24.671Z,20.4
2018-11-12T09:16:15.521Z,20.4
2018-11-12T09:17:05.265Z,20.4
2018-11-12T09:17:55.513Z,20.3
2018-11-12T09:18:45.381Z,20.3
2018-11-12T09:19:35.853Z,20.3
2018-11-12T09:20:26.495Z,20.3
2018-11-12T09:21:15.335Z,20.3
2018-11-12T09:22:05.712Z,20.3
2018-11-12T09:22:56.831Z,20.3
2018-11-12T09:23:46.423Z,20.3
2018-11-12T09:24:36.623Z,20.3
2018-11-12T09:25:26.393Z,20.3
2018-11-12T09:26:17.130Z,20.3
2018-11-12T09:27:04.947Z,20.3
2018-11-12T09:27:55.921Z,20.3
2018-11-12T09:28:45.499Z,20.3
2018-11-12T09:29:36.944Z,20.3
2018-11-12T09:30:27.600Z,20.3
2018-11-12T09:31:29.014Z,20.3
2018-11-12T09:32:06.730Z,20.3
2018-11-12T09:32:57.642Z,20.3
2018-11-12T09:33:46.837Z,20.2
2018-11-12T09:34:38.052Z,20.2
2018-11-12T09:35:27.478Z,20.3
2018-11-12T09:36:17.545Z,20.2
2018-11-12T09:37:07.308Z,20.2
2018-11-12T09:37:58.137Z,20.2
2018-11-12T09:38:47.087Z,20.2
2018-11-12T09:39:37.641Z,20.2
2018-11-12T09:40:27.572Z,20.2
2018-11-12T09:41:16.903Z,20.2
2018-11-12T09:42:08.691Z,20.2
2018-11-12T09:42:58.315Z,20.2
2018-11-12T09:43:47.476Z,20.2
2018-11-12T09:44:38.343Z,20.2
2018-11-12T09:45:28.197Z,20.1
2018-11-12T09:46:18.742Z,20.1
2018-11-12T09:47:06.734Z,20.2
2018-11-12T09:48:00.254Z,20.2
2018-11-12T09:48:49.273Z,20.1
2018-11-12T09:49:38.991Z,20.1
2018-11-12T09:50:28.463Z,20.1
2018-11-12T09:51:18.368Z,20.1
2018-11-12T09:52:07.848Z,20.1
2018-11-12T09:52:58.628Z,20.1
2018-11-12T09:53:50.738Z,20.1
2018-11-12T09:54:42.593Z,20.1
2018-11-12T09:55:28.351Z,20.1
2018-11-12T09:56:19.928Z,20.1
2018-11-12T09:57:09.808Z,20.1
2018-11-12T09:57:59.061Z,20.1
2018-11-12T09:58:48.651Z,20.1
2018-11-12T09:59:38.820Z,20.1
2018-11-12T10:00:33.806Z,20.1
2018-11-12T10:01:24.813Z,20.1
2018-11-12T10:02:19.579Z,20.1
2018-11-12T10:03:10.887Z,20.1
2018-11-12T10:04:07.354Z,20.1
2018-11-12T10:04:55.808Z,20.1
2018-11-12T10:05:39.525Z,20.1
2018-11-12T10:06:40.878Z,20.1
2018-11-12T10:07:38.901Z,20
2018-11-12T10:08:20.083Z,20.1
2018-11-12T10:09:06.247Z,20.1
2018-11-12T10:10:21.375Z,20
2018-11-12T10:11:11.322Z,20
2018-11-12T10:12:14.880Z,20
2018-11-12T10:13:16.994Z,20.1
2018-11-12T10:14:08.732Z,20
2018-11-12T10:15:03.014Z,20
2018-11-12T10:16:05.356Z,20
2018-11-12T10:17:21.711Z,20
2018-11-12T10:18:13.756Z,19.9
2018-11-12T10:18:32.679Z,20
2018-11-12T10:19:22.994Z,20
2018-11-12T10:20:14.059Z,19.9
2018-11-12T10:21:02.889Z,19.9
2018-11-12T10:21:54.040Z,19.9
2018-11-12T10:22:43.476Z,19.9
2018-11-12T10:23:34.358Z,19.9
2018-11-12T10:24:22.137Z,19.9
2018-11-12T10:25:13.337Z,19.9
2018-11-12T10:26:03.129Z,19.9
2018-11-12T10:26:53.437Z,19.9
2018-11-12T10:27:43.282Z,19.9
2018-11-12T10:28:33.484Z,19.9
2018-11-12T10:29:23.254Z,19.9
2018-11-12T10:30:13.281Z,19.9
2018-11-12T10:31:03.939Z,19.9
2018-11-12T10:31:53.641Z,19.9
2018-11-12T10:32:44.251Z,19.9
2018-11-12T10:33:34.956Z,19.9
2018-11-12T10:34:23.954Z,19.9
2018-11-12T10:35:13.785Z,19.9
2018-11-12T10:36:03.729Z,19.9
2018-11-12T10:36:53.841Z,19.8
2018-11-12T10:37:44.191Z,19.8
2018-11-12T10:38:33.621Z,19.9
2018-11-12T10:39:23.991Z,19.8
2018-11-12T10:40:14.671Z,19.8
2018-11-12T10:41:04.419Z,19.8
2018-11-12T10:41:55.375Z,19.8
2018-11-12T10:42:46.639Z,19.8
2018-11-12T10:43:35.275Z,19.8
2018-11-12T10:44:24.503Z,19.8
2018-11-12T10:45:14.395Z,19.8
2018-11-12T10:46:05.193Z,19.8
2018-11-12T10:46:55.209Z,19.8
2018-11-12T10:47:45.656Z,19.8
2018-11-12T10:48:35.545Z,19.8
2018-11-12T10:49:25.673Z,19.8
2018-11-12T10:50:15.235Z,19.8
2018-11-12T10:51:11.488Z,19.8
2018-11-12T10:51:55.818Z,19.8
2018-11-12T10:52:45.353Z,19.8
2018-11-12T10:53:36.742Z,19.8
2018-11-12T10:54:26.470Z,19.8
2018-11-12T10:55:18.777Z,19.8
2018-11-12T10:56:09.958Z,19.7
2018-11-12T10:56:55.982Z,19.8
2018-11-12T10:57:46.270Z,19.7
2018-11-12T10:58:37.210Z,19.7
2018-11-12T10:59:25.874Z,19.7
2018-11-12T11:00:17.850Z,19.7
2018-11-12T11:01:05.965Z,19.7
2018-11-12T11:01:56.567Z,19.7
2018-11-12T11:02:45.587Z,19.7
2018-11-12T11:03:36.434Z,19.7
2018-11-12T11:04:27.317Z,19.6
2018-11-12T11:05:16.254Z,19.7
2018-11-12T11:06:05.232Z,19.7
2018-11-12T11:06:57.196Z,19.6
2018-11-12T11:07:46.455Z,19.6
2018-11-12T11:08:37.097Z,19.6
2018-11-12T11:09:27.094Z,19.6
2018-11-12T11:10:15.982Z,19.6
2018-11-12T11:11:06.724Z,19.6
2018-11-12T11:11:56.902Z,19.6
2018-11-12T11:12:47.159Z,19.6
2018-11-12T11:13:36.918Z,19.6
2018-11-12T11:14:27.588Z,19.6
2018-11-12T11:15:17.480Z,19.6
2018-11-12T11:16:06.687Z,19.6
2018-11-12T11:16:57.351Z,19.6
2018-11-12T11:17:46.986Z,19.6
2018-11-12T11:18:37.519Z,19.6
2018-11-12T11:19:28.351Z,19.6
2018-11-12T11:20:17.333Z,19.6
2018-11-12T11:21:07.877Z,19.6
2018-11-12T11:21:58.121Z,19.7
2018-11-12T11:22:47.768Z,19.8
2018-11-12T11:23:38.127Z,19.8
2018-11-12T11:24:28.183Z,19.8
2018-11-12T11:25:17.593Z,19.8
2018-11-12T11:26:07.957Z,19.8
2018-11-12T11:26:58.383Z,19.9
2018-11-12T11:27:47.141Z,19.9
2018-11-12T11:28:39.060Z,19.9
2018-11-12T11:29:28.225Z,19.9
2018-11-12T11:30:17.732Z,19.9
2018-11-12T11:31:09.018Z,19.9
2018-11-12T11:31:57.688Z,19.9
2018-11-12T11:32:48.652Z,19.9
2018-11-12T11:33:38.073Z,19.9
2018-11-12T11:34:28.176Z,19.9
2018-11-12T11:35:18.475Z,19.9
2018-11-12T11:36:08.325Z,19.9
2018-11-12T11:36:58.404Z,19.9
2018-11-12T11:37:48.774Z,19.9
2018-11-12T11:38:38.653Z,19.9
2018-11-12T11:39:27.898Z,19.9
2018-11-12T11:40:20.058Z,19.9
2018-11-12T11:41:09.085Z,19.8
2018-11-12T11:41:58.623Z,19.8
2018-11-12T11:42:48.519Z,19.8
2018-11-12T11:43:38.495Z,19.8
2018-11-12T11:44:28.538Z,19.8
2018-11-12T11:45:18.952Z,19.8
2018-11-12T11:46:08.853Z,19.8
2018-11-12T11:47:00.117Z,19.8
2018-11-12T11:47:50.988Z,19.8
2018-11-12T11:48:39.949Z,19.8
2018-11-12T11:49:29.059Z,19.8
2018-11-12T11:50:20.689Z,19.8
2018-11-12T11:51:09.661Z,19.7
2018-11-12T11:51:59.523Z,19.7
2018-11-12T11:52:49.956Z,19.7
2018-11-12T11:53:39.374Z,19.7
2018-11-12T11:54:28.937Z,19.7
2018-11-12T11:55:18.884Z,19.7
2018-11-12T11:56:09.967Z,19.7
2018-11-12T11:57:00.214Z,19.6
2018-11-12T11:57:51.321Z,19.6
2018-11-12T11:58:40.025Z,19.6
2018-11-12T11:59:30.256Z,19.6
2018-11-12T12:00:20.081Z,19.6
2018-11-12T12:01:12.194Z,19.6
2018-11-12T12:02:00.786Z,19.6
2018-11-12T12:02:51.225Z,19.6
2018-11-12T12:03:39.869Z,19.6
2018-11-12T12:04:30.993Z,19.6
2018-11-12T12:05:21.131Z,19.6
2018-11-12T12:06:10.869Z,19.6
2018-11-12T12:07:00.767Z,19.6
2018-11-12T12:07:50.788Z,19.6
2018-11-12T12:08:40.708Z,19.6
2018-11-12T12:09:31.498Z,19.6
2018-11-12T12:10:21.754Z,19.6
2018-11-12T12:11:12.003Z,19.6
2018-11-12T12:12:01.501Z,19.6
2018-11-12T12:12:52.809Z,19.6
2018-11-12T12:13:40.395Z,19.6
2018-11-12T12:14:32.068Z,19.6
2018-11-12T12:15:21.856Z,19.6
2018-11-12T12:16:12.048Z,19.6
2018-11-12T12:17:01.300Z,19.6
2018-11-12T12:17:51.468Z,19.6
2018-11-12T12:18:42.389Z,19.6
2018-11-12T12:19:31.581Z,19.6
2018-11-12T12:20:21.649Z,19.6
2018-11-12T12:21:12.585Z,19.6
2018-11-12T12:22:01.125Z,19.6
2018-11-12T12:22:52.102Z,19.6
2018-11-12T12:23:42.183Z,19.6
2018-11-12T12:24:32.902Z,19.6
2018-11-12T12:25:26.686Z,19.6